sensor_id;sensor_type;location;lat;lon;timestamp;temperature;humidity
45213;DHT22;35816;44.498;0.166;2022-10-22T08:56:16;20.00;99.90
45213;DHT22;35816;44.498;0.166;2022-10-22T08:58:45;20.50;99.90
45213;DHT22;35816;44.498;0.166;2022-10-22T09:01:23;20.90;99.90
45213;DHT22;35816;44.498;0.166;2022-10-22T09:06:19;21.60;99.90
45213;DHT22;35816;44.498;0.166;2022-10-22T09:08:47;21.90;99.90
45213;DHT22;35816;44.498;0.166;2022-10-22T09:13:48;22.60;99.90
45213;DHT22;35816;44.498;0.166;2022-10-22T09:16:18;23.10;99.90
45213;DHT22;35816;44.498;0.166;2022-10-22T09:23:54;24.60;97.70
45213;DHT22;35816;44.498;0.166;2022-10-22T09:26:23;25.10;97.00
45213;DHT22;35816;44.498;0.166;2022-10-22T09:28:49;25.50;95.00
45213;DHT22;35816;44.498;0.166;2022-10-22T09:31:15;25.80;92.70
45213;DHT22;35816;44.498;0.166;2022-10-22T09:33:42;26.10;90.40
45213;DHT22;35816;44.498;0.166;2022-10-22T09:36:08;26.40;89.10
45213;DHT22;35816;44.498;0.166;2022-10-22T09:38:43;26.80;84.90
45213;DHT22;35816;44.498;0.166;2022-10-22T09:41:09;27.20;81.70
45213;DHT22;35816;44.498;0.166;2022-10-22T09:43:35;27.50;79.20
45213;DHT22;35816;44.498;0.166;2022-10-22T09:46:02;27.90;76.10
45213;DHT22;35816;44.498;0.166;2022-10-22T09:48:30;28.10;75.30
45213;DHT22;35816;44.498;0.166;2022-10-22T09:51:05;28.10;71.00
45213;DHT22;35816;44.498;0.166;2022-10-22T09:53:36;28.00;69.50
45213;DHT22;35816;44.498;0.166;2022-10-22T09:56:06;28.10;69.30
45213;DHT22;35816;44.498;0.166;2022-10-22T09:58:40;28.30;68.10
45213;DHT22;35816;44.498;0.166;2022-10-22T10:01:06;28.60;67.40
45213;DHT22;35816;44.498;0.166;2022-10-22T10:03:31;29.10;67.60
45213;DHT22;35816;44.498;0.166;2022-10-22T10:05:58;29.60;65.10
45213;DHT22;35816;44.498;0.166;2022-10-22T10:08:24;29.90;62.60
45213;DHT22;35816;44.498;0.166;2022-10-22T10:10:51;30.10;62.20
45213;DHT22;35816;44.498;0.166;2022-10-22T10:21:05;30.50;58.20
45213;DHT22;35816;44.498;0.166;2022-10-22T10:26:10;31.20;56.70
45213;DHT22;35816;44.498;0.166;2022-10-22T10:28:42;31.30;56.30
45213;DHT22;35816;44.498;0.166;2022-10-22T10:36:15;32.20;54.10
45213;DHT22;35816;44.498;0.166;2022-10-22T10:43:51;32.80;52.20
45213;DHT22;35816;44.498;0.166;2022-10-22T10:46:26;32.90;50.20
45213;DHT22;35816;44.498;0.166;2022-10-22T10:49:08;32.70;49.20
45213;DHT22;35816;44.498;0.166;2022-10-22T10:51:41;32.60;49.40
45213;DHT22;35816;44.498;0.166;2022-10-22T10:54:20;32.40;47.90
45213;DHT22;35816;44.498;0.166;2022-10-22T10:56:47;32.20;48.10
45213;DHT22;35816;44.498;0.166;2022-10-22T11:07:00;31.20;48.50
45213;DHT22;35816;44.498;0.166;2022-10-22T11:09:31;31.00;48.20
45213;DHT22;35816;44.498;0.166;2022-10-22T11:12:01;30.40;48.00
45213;DHT22;35816;44.498;0.166;2022-10-22T11:14:31;29.70;48.40
45213;DHT22;35816;44.498;0.166;2022-10-22T11:17:12;29.10;49.30
45213;DHT22;35816;44.498;0.166;2022-10-22T11:19:50;28.70;50.00
45213;DHT22;35816;44.498;0.166;2022-10-22T11:24:48;29.20;51.60
45213;DHT22;35816;44.498;0.166;2022-10-22T11:29:45;30.80;49.90
45213;DHT22;35816;44.498;0.166;2022-10-22T11:32:13;31.30;48.80
45213;DHT22;35816;44.498;0.166;2022-10-22T11:34:43;31.80;48.90
45213;DHT22;35816;44.498;0.166;2022-10-22T11:37:09;32.10;47.40
45213;DHT22;35816;44.498;0.166;2022-10-22T11:42:18;32.60;46.60
45213;DHT22;35816;44.498;0.166;2022-10-22T11:44:46;32.80;46.20
45213;DHT22;35816;44.498;0.166;2022-10-22T11:47:22;33.10;46.00
45213;DHT22;35816;44.498;0.166;2022-10-22T11:49:56;33.20;45.30
45213;DHT22;35816;44.498;0.166;2022-10-22T11:54:57;32.10;45.00
45213;DHT22;35816;44.498;0.166;2022-10-22T11:57:26;31.90;45.80
45213;DHT22;35816;44.498;0.166;2022-10-22T11:59:55;32.30;46.50
45213;DHT22;35816;44.498;0.166;2022-10-22T12:02:23;33.00;46.30
45213;DHT22;35816;44.498;0.166;2022-10-22T12:04:49;33.30;45.20
45213;DHT22;35816;44.498;0.166;2022-10-22T12:07:29;33.60;45.00
45213;DHT22;35816;44.498;0.166;2022-10-22T12:09:56;33.90;44.70
45213;DHT22;35816;44.498;0.166;2022-10-22T12:12:22;34.30;45.10
45213;DHT22;35816;44.498;0.166;2022-10-22T12:14:51;34.80;44.00
45213;DHT22;35816;44.498;0.166;2022-10-22T12:17:18;34.90;43.10
45213;DHT22;35816;44.498;0.166;2022-10-22T12:19:48;35.20;42.90
45213;DHT22;35816;44.498;0.166;2022-10-22T12:22:16;35.50;42.70
45213;DHT22;35816;44.498;0.166;2022-10-22T12:24:46;35.60;41.70
45213;DHT22;35816;44.498;0.166;2022-10-22T12:27:17;35.70;41.50
45213;DHT22;35816;44.498;0.166;2022-10-22T12:29:43;36.00;41.40
45213;DHT22;35816;44.498;0.166;2022-10-22T12:32:09;36.30;41.00
45213;DHT22;35816;44.498;0.166;2022-10-22T12:34:36;36.50;40.20
45213;DHT22;35816;44.498;0.166;2022-10-22T12:37:09;36.60;39.90
45213;DHT22;35816;44.498;0.166;2022-10-22T12:39:35;36.50;39.10
45213;DHT22;35816;44.498;0.166;2022-10-22T12:42:03;36.40;39.00
45213;DHT22;35816;44.498;0.166;2022-10-22T12:44:28;36.20;39.20
45213;DHT22;35816;44.498;0.166;2022-10-22T12:46:56;35.80;39.00
45213;DHT22;35816;44.498;0.166;2022-10-22T12:49:24;35.30;38.90
45213;DHT22;35816;44.498;0.166;2022-10-22T12:51:52;34.80;38.80
45213;DHT22;35816;44.498;0.166;2022-10-22T12:54:23;34.70;39.50
45213;DHT22;35816;44.498;0.166;2022-10-22T12:56:49;35.00;39.50
45213;DHT22;35816;44.498;0.166;2022-10-22T12:59:18;35.30;39.20
45213;DHT22;35816;44.498;0.166;2022-10-22T13:01:44;35.70;38.90
45213;DHT22;35816;44.498;0.166;2022-10-22T13:06:42;35.60;38.20
45213;DHT22;35816;44.498;0.166;2022-10-22T13:09:19;35.30;37.80
45213;DHT22;35816;44.498;0.166;2022-10-22T13:11:55;35.10;38.00
45213;DHT22;35816;44.498;0.166;2022-10-22T13:19:36;34.30;38.00
45213;DHT22;35816;44.498;0.166;2022-10-22T13:22:02;34.50;38.00
45213;DHT22;35816;44.498;0.166;2022-10-22T13:24:28;34.50;37.80
45213;DHT22;35816;44.498;0.166;2022-10-22T13:26:55;34.80;38.00
45213;DHT22;35816;44.498;0.166;2022-10-22T13:29:21;35.10;37.40
45213;DHT22;35816;44.498;0.166;2022-10-22T13:31:51;35.30;37.40
45213;DHT22;35816;44.498;0.166;2022-10-22T13:34:18;35.40;37.50
45213;DHT22;35816;44.498;0.166;2022-10-22T13:36:45;35.40;37.00
45213;DHT22;35816;44.498;0.166;2022-10-22T13:39:20;35.10;37.00
45213;DHT22;35816;44.498;0.166;2022-10-22T13:41:46;34.90;36.90
45213;DHT22;35816;44.498;0.166;2022-10-22T13:44:15;34.60;36.60
45213;DHT22;35816;44.498;0.166;2022-10-22T13:46:40;34.00;36.90
45213;DHT22;35816;44.498;0.166;2022-10-22T13:49:15;33.30;37.10
45213;DHT22;35816;44.498;0.166;2022-10-22T13:51:41;32.80;37.60
45213;DHT22;35816;44.498;0.166;2022-10-22T13:54:15;32.30;38.10
45213;DHT22;35816;44.498;0.166;2022-10-22T13:56:42;32.00;38.40
45213;DHT22;35816;44.498;0.166;2022-10-22T13:59:08;32.00;38.70
45213;DHT22;35816;44.498;0.166;2022-10-22T14:01:33;32.00;38.70
45213;DHT22;35816;44.498;0.166;2022-10-22T14:04:00;32.10;38.60
45213;DHT22;35816;44.498;0.166;2022-10-22T14:06:29;32.20;38.60
45213;DHT22;35816;44.498;0.166;2022-10-22T14:08:56;32.80;38.80
45213;DHT22;35816;44.498;0.166;2022-10-22T14:11:23;33.30;38.30
45213;DHT22;35816;44.498;0.166;2022-10-22T14:13:48;33.50;37.90
45213;DHT22;35816;44.498;0.166;2022-10-22T14:16:15;33.60;37.60
45213;DHT22;35816;44.498;0.166;2022-10-22T14:18:42;33.20;37.50
45213;DHT22;35816;44.498;0.166;2022-10-22T14:21:09;32.70;37.50
45213;DHT22;35816;44.498;0.166;2022-10-22T14:23:35;32.30;37.90
45213;DHT22;35816;44.498;0.166;2022-10-22T14:26:01;32.10;38.30
45213;DHT22;35816;44.498;0.166;2022-10-22T14:28:27;32.20;38.50
45213;DHT22;35816;44.498;0.166;2022-10-22T14:30:53;32.20;38.60
45213;DHT22;35816;44.498;0.166;2022-10-22T14:33:23;32.40;38.50
45213;DHT22;35816;44.498;0.166;2022-10-22T14:35:50;32.60;38.30
45213;DHT22;35816;44.498;0.166;2022-10-22T14:38:15;32.60;38.20
45213;DHT22;35816;44.498;0.166;2022-10-22T14:40:41;32.40;38.40
45213;DHT22;35816;44.498;0.166;2022-10-22T14:43:13;32.20;38.30
45213;DHT22;35816;44.498;0.166;2022-10-22T14:45:40;31.80;38.50
45213;DHT22;35816;44.498;0.166;2022-10-22T14:48:05;31.50;38.70
45213;DHT22;35816;44.498;0.166;2022-10-22T14:50:32;31.30;38.90
45213;DHT22;35816;44.498;0.166;2022-10-22T14:52:58;31.00;39.00
45213;DHT22;35816;44.498;0.166;2022-10-22T14:55:24;30.70;39.30
45213;DHT22;35816;44.498;0.166;2022-10-22T14:57:51;30.40;39.60
45213;DHT22;35816;44.498;0.166;2022-10-22T15:00:17;30.20;39.80
45213;DHT22;35816;44.498;0.166;2022-10-22T15:02:43;30.10;40.20
45213;DHT22;35816;44.498;0.166;2022-10-22T15:05:09;30.10;40.40
45213;DHT22;35816;44.498;0.166;2022-10-22T15:07:35;30.20;40.40
45213;DHT22;35816;44.498;0.166;2022-10-22T15:10:01;30.50;40.60
45213;DHT22;35816;44.498;0.166;2022-10-22T15:12:26;30.90;40.60
45213;DHT22;35816;44.498;0.166;2022-10-22T15:14:52;31.20;40.30
45213;DHT22;35816;44.498;0.166;2022-10-22T15:17:18;31.50;40.10
45213;DHT22;35816;44.498;0.166;2022-10-22T15:19:43;31.80;40.00
45213;DHT22;35816;44.498;0.166;2022-10-22T15:22:09;32.20;39.90
45213;DHT22;35816;44.498;0.166;2022-10-22T15:24:35;32.30;39.60
45213;DHT22;35816;44.498;0.166;2022-10-22T15:27:00;32.20;39.60
45213;DHT22;35816;44.498;0.166;2022-10-22T15:29:28;32.30;39.80
45213;DHT22;35816;44.498;0.166;2022-10-22T15:31:55;32.30;39.60
45213;DHT22;35816;44.498;0.166;2022-10-22T15:34:24;32.10;39.70
45213;DHT22;35816;44.498;0.166;2022-10-22T15:36:52;31.80;39.80
45213;DHT22;35816;44.498;0.166;2022-10-22T15:39:18;31.50;40.00
45213;DHT22;35816;44.498;0.166;2022-10-22T15:41:44;31.10;40.20
45213;DHT22;35816;44.498;0.166;2022-10-22T15:44:20;30.60;40.40
45213;DHT22;35816;44.498;0.166;2022-10-22T15:46:45;30.20;40.70
45213;DHT22;35816;44.498;0.166;2022-10-22T15:49:11;29.90;41.00
45213;DHT22;35816;44.498;0.166;2022-10-22T15:51:37;29.60;41.00
45213;DHT22;35816;44.498;0.166;2022-10-22T15:54:03;29.20;41.20
45213;DHT22;35816;44.498;0.166;2022-10-22T15:56:28;28.90;41.40
45213;DHT22;35816;44.498;0.166;2022-10-22T15:58:55;28.60;41.50
45213;DHT22;35816;44.498;0.166;2022-10-22T16:01:22;28.40;41.80
45213;DHT22;35816;44.498;0.166;2022-10-22T16:03:48;28.20;42.00
45213;DHT22;35816;44.498;0.166;2022-10-22T16:06:16;27.90;42.10
45213;DHT22;35816;44.498;0.166;2022-10-22T16:08:42;27.70;42.30
45213;DHT22;35816;44.498;0.166;2022-10-22T16:11:08;27.50;42.40
45213;DHT22;35816;44.498;0.166;2022-10-22T16:13:33;27.30;42.80
45213;DHT22;35816;44.498;0.166;2022-10-22T16:16:03;27.20;42.90
45213;DHT22;35816;44.498;0.166;2022-10-22T16:18:29;27.00;43.20
45213;DHT22;35816;44.498;0.166;2022-10-22T16:20:55;26.90;43.30
45213;DHT22;35816;44.498;0.166;2022-10-22T16:23:20;26.70;43.50
45213;DHT22;35816;44.498;0.166;2022-10-22T16:25:46;26.60;43.70
45213;DHT22;35816;44.498;0.166;2022-10-22T16:28:12;26.40;43.90
45213;DHT22;35816;44.498;0.166;2022-10-22T16:30:38;26.20;44.10
45213;DHT22;35816;44.498;0.166;2022-10-22T16:33:04;26.10;44.40
45213;DHT22;35816;44.498;0.166;2022-10-22T16:35:30;25.90;44.50
45213;DHT22;35816;44.498;0.166;2022-10-22T16:37:56;25.80;44.70
45213;DHT22;35816;44.498;0.166;2022-10-22T16:40:21;25.60;44.80
45213;DHT22;35816;44.498;0.166;2022-10-22T16:42:47;25.40;45.00
45213;DHT22;35816;44.498;0.166;2022-10-22T16:45:13;25.30;45.30
45213;DHT22;35816;44.498;0.166;2022-10-22T16:47:38;25.10;45.50
45213;DHT22;35816;44.498;0.166;2022-10-22T16:50:04;25.00;45.90
45213;DHT22;35816;44.498;0.166;2022-10-22T16:52:31;24.90;46.00
45213;DHT22;35816;44.498;0.166;2022-10-22T16:54:56;24.70;46.10
45213;DHT22;35816;44.498;0.166;2022-10-22T16:57:22;24.60;46.30
45213;DHT22;35816;44.498;0.166;2022-10-22T16:59:48;24.40;46.50
45213;DHT22;35816;44.498;0.166;2022-10-22T17:02:14;24.30;46.60
45213;DHT22;35816;44.498;0.166;2022-10-22T17:04:39;24.20;46.80
45213;DHT22;35816;44.498;0.166;2022-10-22T17:07:05;24.10;46.90
45213;DHT22;35816;44.498;0.166;2022-10-22T17:09:30;23.90;47.10
45213;DHT22;35816;44.498;0.166;2022-10-22T17:11:56;23.80;47.10
45213;DHT22;35816;44.498;0.166;2022-10-22T17:14:21;23.70;47.30
45213;DHT22;35816;44.498;0.166;2022-10-22T17:16:47;23.60;47.50
45213;DHT22;35816;44.498;0.166;2022-10-22T17:19:19;23.50;47.60
45213;DHT22;35816;44.498;0.166;2022-10-22T17:21:45;23.30;47.80
45213;DHT22;35816;44.498;0.166;2022-10-22T17:24:11;23.20;48.00
45213;DHT22;35816;44.498;0.166;2022-10-22T17:26:36;23.10;48.20
45213;DHT22;35816;44.498;0.166;2022-10-22T17:29:02;23.00;48.30
45213;DHT22;35816;44.498;0.166;2022-10-22T17:31:29;22.90;48.40
45213;DHT22;35816;44.498;0.166;2022-10-22T17:33:57;22.80;48.60
45213;DHT22;35816;44.498;0.166;2022-10-22T17:36:25;22.70;48.70
45213;DHT22;35816;44.498;0.166;2022-10-22T17:38:54;22.70;48.90
45213;DHT22;35816;44.498;0.166;2022-10-22T17:41:22;22.60;49.20
45213;DHT22;35816;44.498;0.166;2022-10-22T17:43:48;22.50;49.70
45213;DHT22;35816;44.498;0.166;2022-10-22T17:46:18;22.50;49.40
45213;DHT22;35816;44.498;0.166;2022-10-22T17:48:47;22.40;49.70
45213;DHT22;35816;44.498;0.166;2022-10-22T17:51:12;22.30;49.70
45213;DHT22;35816;44.498;0.166;2022-10-22T17:53:39;22.30;50.00
45213;DHT22;35816;44.498;0.166;2022-10-22T17:56:05;22.20;50.10
45213;DHT22;35816;44.498;0.166;2022-10-22T17:58:34;22.10;50.30
45213;DHT22;35816;44.498;0.166;2022-10-22T18:01:00;22.00;50.40
45213;DHT22;35816;44.498;0.166;2022-10-22T18:03:26;22.00;50.60
45213;DHT22;35816;44.498;0.166;2022-10-22T18:05:52;21.90;50.70
45213;DHT22;35816;44.498;0.166;2022-10-22T18:08:18;21.80;51.00
45213;DHT22;35816;44.498;0.166;2022-10-22T18:10:44;21.80;51.20
45213;DHT22;35816;44.498;0.166;2022-10-22T18:13:09;21.70;51.50
45213;DHT22;35816;44.498;0.166;2022-10-22T18:15:35;21.60;51.70
45213;DHT22;35816;44.498;0.166;2022-10-22T18:18:01;21.60;52.10
45213;DHT22;35816;44.498;0.166;2022-10-22T18:20:27;21.50;52.20
45213;DHT22;35816;44.498;0.166;2022-10-22T18:22:53;21.50;52.40
45213;DHT22;35816;44.498;0.166;2022-10-22T18:25:22;21.40;52.70
45213;DHT22;35816;44.498;0.166;2022-10-22T18:30:56;21.30;53.00
45213;DHT22;35816;44.498;0.166;2022-10-22T18:33:40;21.30;53.20
45213;DHT22;35816;44.498;0.166;2022-10-22T18:42:12;21.10;53.70
45213;DHT22;35816;44.498;0.166;2022-10-22T18:44:57;21.10;53.90
45213;DHT22;35816;44.498;0.166;2022-10-22T18:50:40;20.90;54.60
45213;DHT22;35816;44.498;0.166;2022-10-22T19:09:01;20.90;56.60
45213;DHT22;35816;44.498;0.166;2022-10-22T19:18:11;20.90;57.10
45213;DHT22;35816;44.498;0.166;2022-10-22T21:01:25;20.70;63.70
45213;DHT22;35816;44.498;0.166;2022-10-22T21:32:50;21.00;65.10
45213;DHT22;35816;44.498;0.166;2022-10-22T21:48:26;21.10;66.90
45213;DHT22;35816;44.498;0.166;2022-10-22T21:50:52;21.10;67.10
45213;DHT22;35816;44.498;0.166;2022-10-22T21:59:44;21.20;67.30
45213;DHT22;35816;44.498;0.166;2022-10-22T22:02:09;21.20;67.50
45213;DHT22;35816;44.498;0.166;2022-10-22T22:04:35;21.30;67.70
45213;DHT22;35816;44.498;0.166;2022-10-22T22:07:04;21.30;68.10
45213;DHT22;35816;44.498;0.166;2022-10-22T22:09:31;21.30;68.20
45213;DHT22;35816;44.498;0.166;2022-10-22T22:11:59;21.30;68.30
45213;DHT22;35816;44.498;0.166;2022-10-22T22:14:24;21.30;68.50
45213;DHT22;35816;44.498;0.166;2022-10-22T22:16:55;21.30;69.00
45213;DHT22;35816;44.498;0.166;2022-10-22T22:19:22;21.40;69.30
45213;DHT22;35816;44.498;0.166;2022-10-22T22:21:48;21.30;69.70
45213;DHT22;35816;44.498;0.166;2022-10-22T22:24:16;21.30;70.10
45213;DHT22;35816;44.498;0.166;2022-10-22T22:26:42;21.40;70.80
45213;DHT22;35816;44.498;0.166;2022-10-22T22:29:08;21.40;70.70
45213;DHT22;35816;44.498;0.166;2022-10-22T22:31:34;21.40;71.20
45213;DHT22;35816;44.498;0.166;2022-10-22T22:34:02;21.40;70.90
45213;DHT22;35816;44.498;0.166;2022-10-22T22:36:31;21.40;71.60
45213;DHT22;35816;44.498;0.166;2022-10-22T22:38:56;21.40;71.90
45213;DHT22;35816;44.498;0.166;2022-10-22T22:44:25;21.40;72.50
45213;DHT22;35816;44.498;0.166;2022-10-22T22:46:51;21.30;72.70
45213;DHT22;35816;44.498;0.166;2022-10-22T22:49:17;21.30;73.10
45213;DHT22;35816;44.498;0.166;2022-10-22T22:51:43;21.30;73.10
45213;DHT22;35816;44.498;0.166;2022-10-22T22:54:09;21.30;73.20
45213;DHT22;35816;44.498;0.166;2022-10-22T22:56:35;21.30;73.70
45213;DHT22;35816;44.498;0.166;2022-10-22T22:59:03;21.30;74.00
45213;DHT22;35816;44.498;0.166;2022-10-22T23:01:30;21.30;74.30
45213;DHT22;35816;44.498;0.166;2022-10-22T23:03:57;21.30;74.80
45213;DHT22;35816;44.498;0.166;2022-10-22T23:06:41;21.20;75.30
45213;DHT22;35816;44.498;0.166;2022-10-22T23:09:09;21.30;76.30
45213;DHT22;35816;44.498;0.166;2022-10-22T23:11:54;21.30;76.60
45213;DHT22;35816;44.498;0.166;2022-10-22T23:17:23;21.20;77.50
